createdAt,value
2022-07-25T00:01:18.166Z,22.40
2022-07-25T00:06:24.055Z,22.30
2022-07-25T00:11:27.617Z,22.30
2022-07-25T00:16:31.227Z,22.20
2022-07-25T00:21:34.072Z,22.10
2022-07-25T00:26:40.279Z,22.00
2022-07-25T00:31:44.169Z,22.00
2022-07-25T00:36:47.295Z,21.90
2022-07-25T00:41:50.894Z,21.90
2022-07-25T00:46:53.769Z,21.90
2022-07-25T00:51:57.325Z,21.90
2022-07-25T00:57:00.909Z,21.80
2022-07-25T01:02:05.715Z,21.70
2022-07-25T01:07:09.281Z,21.70
2022-07-25T01:12:13.279Z,21.60
2022-07-25T01:17:19.512Z,21.50
2022-07-25T01:22:42.231Z,21.50
2022-07-25T01:27:55.730Z,21.40
2022-07-25T01:33:08.210Z,21.40
2022-07-25T01:38:12.135Z,21.30
2022-07-25T01:43:15.859Z,21.30
2022-07-25T01:48:19.935Z,21.20
2022-07-25T01:53:23.107Z,21.20
2022-07-25T01:58:27.380Z,21.20
2022-07-25T02:03:33.863Z,21.20
2022-07-25T02:08:38.006Z,21.10
2022-07-25T02:13:41.057Z,21.00
2022-07-25T02:18:43.891Z,20.90
2022-07-25T02:23:47.446Z,20.90
2022-07-25T02:28:50.258Z,20.90
2022-07-25T02:33:53.735Z,20.90
2022-07-25T02:38:57.785Z,20.90
2022-07-25T02:44:01.015Z,20.90
2022-07-25T02:49:04.284Z,20.80
2022-07-25T02:54:07.710Z,20.70
2022-07-25T02:59:10.513Z,20.60
2022-07-25T03:04:13.810Z,20.60
2022-07-25T03:09:19.144Z,20.60
2022-07-25T03:14:21.971Z,20.60
2022-07-25T03:19:25.541Z,20.60
2022-07-25T03:24:28.361Z,20.50
2022-07-25T03:29:31.132Z,20.50
2022-07-25T03:34:34.512Z,20.40
2022-07-25T03:39:37.592Z,20.50
2022-07-25T03:44:40.902Z,20.50
2022-07-25T03:49:44.858Z,20.50
2022-07-25T03:54:48.008Z,20.50
2022-07-25T03:59:51.386Z,20.50
2022-07-25T04:04:54.551Z,20.70
2022-07-25T04:09:57.664Z,20.70
2022-07-25T04:15:01.186Z,20.90
2022-07-25T04:20:04.477Z,21.00
2022-07-25T04:25:09.801Z,21.20
2022-07-25T04:30:12.984Z,21.30
2022-07-25T04:35:27.195Z,21.50
2022-07-25T04:40:30.545Z,21.80
2022-07-25T04:45:35.124Z,22.00
2022-07-25T04:50:38.577Z,22.20
2022-07-25T04:55:42.021Z,22.60
2022-07-25T05:00:45.246Z,22.70
2022-07-25T05:05:49.349Z,23.00
2022-07-25T05:10:53.285Z,23.20
2022-07-25T05:15:57.346Z,23.40
2022-07-25T05:21:00.452Z,23.70
2022-07-25T05:26:03.676Z,24.00
2022-07-25T05:31:06.530Z,24.20
2022-07-25T05:36:09.995Z,24.40
2022-07-25T05:41:13.226Z,24.50
2022-07-25T05:46:16.447Z,24.70
2022-07-25T05:51:19.753Z,25.10
2022-07-25T05:56:22.511Z,25.30
2022-07-25T06:01:25.749Z,25.60
2022-07-25T06:06:29.054Z,25.80
2022-07-25T06:11:32.233Z,26.00
2022-07-25T06:16:35.545Z,26.10
2022-07-25T06:21:39.186Z,26.40
2022-07-25T06:26:42.139Z,26.60
2022-07-25T06:31:46.422Z,26.80
2022-07-25T06:36:50.326Z,27.00
2022-07-25T06:41:53.513Z,27.30
2022-07-25T06:46:56.406Z,27.30
2022-07-25T06:51:59.573Z,27.50
2022-07-25T06:57:02.810Z,27.70
2022-07-25T07:02:06.105Z,27.70
2022-07-25T10:56:04.889Z,34.70
2022-07-25T11:01:09.517Z,35.20
2022-07-25T11:06:12.963Z,36.40
2022-07-25T11:11:16.322Z,36.90
2022-07-25T11:16:19.152Z,37.40
2022-07-25T11:21:22.418Z,37.70
2022-07-25T11:26:25.282Z,37.50
2022-07-25T11:31:30.439Z,37.60
2022-07-25T11:36:33.806Z,37.20
2022-07-25T11:41:37.924Z,36.80
2022-07-25T11:46:40.709Z,35.90
2022-07-25T11:51:43.600Z,35.30
2022-07-25T11:56:47.694Z,34.80
2022-07-25T12:01:51.079Z,34.70
2022-07-25T12:06:53.960Z,34.60
2022-07-25T12:11:57.521Z,34.70
2022-07-25T12:17:00.521Z,34.80
2022-07-25T12:22:03.851Z,34.90
2022-07-25T12:27:06.875Z,34.90
2022-07-25T12:32:10.676Z,34.90
2022-07-25T12:37:13.574Z,35.30
2022-07-25T12:42:17.273Z,35.00
2022-07-25T12:47:21.162Z,35.10
2022-07-25T12:52:24.520Z,35.10
2022-07-25T12:57:27.374Z,35.00
2022-07-25T13:02:30.218Z,35.10
2022-07-25T13:07:33.571Z,35.10
2022-07-25T13:12:37.086Z,35.30
2022-07-25T13:17:40.916Z,35.40
2022-07-25T13:22:44.205Z,35.40
2022-07-25T13:27:47.351Z,35.20
2022-07-25T13:32:50.669Z,35.20
2022-07-25T13:37:54.199Z,35.40
2022-07-25T13:42:57.832Z,35.60
2022-07-25T13:48:27.785Z,35.90
2022-07-25T13:53:29.465Z,36.00
2022-07-25T13:58:32.943Z,35.90
2022-07-25T14:03:36.884Z,36.00
2022-07-25T14:08:40.003Z,35.90
2022-07-25T14:13:43.672Z,35.80
2022-07-25T14:18:46.678Z,35.80
2022-07-25T14:23:49.509Z,35.60
2022-07-25T14:28:52.337Z,35.40
2022-07-25T14:33:55.137Z,35.30
2022-07-25T14:38:58.301Z,35.40
2022-07-25T14:44:04.681Z,35.60
2022-07-25T14:49:08.806Z,35.60
2022-07-25T14:54:12.058Z,35.70
2022-07-25T14:59:15.278Z,35.80
2022-07-25T15:04:19.872Z,35.80
2022-07-25T15:09:22.750Z,35.70
2022-07-25T15:14:26.389Z,35.70
2022-07-25T15:19:29.331Z,35.80
2022-07-25T15:24:49.495Z,35.60
2022-07-25T15:29:56.039Z,35.50
2022-07-25T15:34:59.372Z,35.70
2022-07-25T15:40:03.671Z,35.80
2022-07-25T15:45:32.027Z,35.70
2022-07-25T15:50:30.480Z,35.50
2022-07-25T15:55:34.443Z,35.40
2022-07-25T16:00:37.940Z,35.40
2022-07-25T16:05:41.106Z,35.30
2022-07-25T16:10:44.377Z,35.10
2022-07-25T16:15:48.406Z,34.90
2022-07-25T16:20:51.768Z,34.80
2022-07-25T16:25:55.322Z,34.70
2022-07-25T16:30:58.153Z,34.70
2022-07-25T16:36:01.679Z,34.60
2022-07-25T16:41:05.041Z,34.40
2022-07-25T16:46:09.100Z,34.20
2022-07-25T16:51:12.862Z,34.10
2022-07-25T16:56:16.178Z,33.90
2022-07-25T17:01:19.582Z,33.80
2022-07-25T17:06:22.945Z,33.80
2022-07-25T17:11:26.868Z,33.60
2022-07-25T17:16:30.321Z,33.50
2022-07-25T17:21:33.663Z,33.40
2022-07-25T17:26:36.991Z,33.10
2022-07-25T17:31:40.681Z,33.30
2022-07-25T17:36:43.900Z,33.30
2022-07-25T17:41:48.245Z,33.10
2022-07-25T17:46:52.209Z,33.00
2022-07-25T17:51:55.572Z,33.10
2022-07-25T17:56:59.582Z,33.10
2022-07-25T18:02:02.874Z,33.10
2022-07-25T18:07:05.946Z,32.90
2022-07-25T18:12:09.120Z,32.80
2022-07-25T18:17:11.878Z,32.50
2022-07-25T18:22:15.205Z,31.80
2022-07-25T18:27:18.203Z,31.10
2022-07-25T18:32:21.295Z,30.60
2022-07-25T18:37:24.626Z,30.30
2022-07-25T18:42:30.091Z,29.90
2022-07-25T18:52:38.381Z,29.90
2022-07-25T18:57:41.525Z,29.20
2022-07-25T19:02:44.708Z,29.10
2022-07-25T19:07:48.041Z,28.70
2022-07-25T19:12:52.021Z,28.60
2022-07-25T19:17:56.067Z,28.40
2022-07-25T19:22:58.892Z,28.30
2022-07-25T19:28:02.858Z,28.20
2022-07-25T19:33:06.147Z,28.20
2022-07-25T19:38:09.243Z,28.10
2022-07-25T19:43:15.698Z,28.00
2022-07-25T19:48:19.005Z,28.00
2022-07-25T19:53:25.461Z,27.90
2022-07-25T19:58:34.208Z,27.90
2022-07-25T20:03:41.041Z,27.80
2022-07-25T20:08:44.146Z,27.80
2022-07-25T20:13:47.283Z,27.80
2022-07-25T20:18:53.893Z,27.70
2022-07-25T20:23:58.084Z,27.60
2022-07-25T20:29:00.876Z,27.40
2022-07-25T20:34:04.256Z,26.10
2022-07-25T20:39:07.883Z,25.90
2022-07-25T20:44:12.665Z,25.40
2022-07-25T20:49:16.557Z,25.20
2022-07-25T21:09:32.819Z,24.00
2022-07-25T21:14:36.303Z,23.90
2022-07-25T21:19:39.514Z,23.90
2022-07-25T21:24:43.665Z,23.60
2022-07-25T21:29:47.031Z,22.90
